createdAt,value
2022-11-04T00:02:53.706Z,96892.00
2022-11-04T00:08:14.889Z,96880.00
2022-11-04T00:13:17.607Z,96880.00
2022-11-04T00:18:20.371Z,96879.00
2022-11-04T00:23:41.564Z,96876.00
2022-11-04T00:28:44.287Z,96873.00
2022-11-04T00:33:48.965Z,96871.00
2022-11-04T00:38:51.758Z,96871.00
2022-11-04T00:43:55.573Z,96876.00
2022-11-04T00:48:58.495Z,96860.00
2022-11-04T00:54:01.273Z,96873.00
2022-11-04T00:59:04.247Z,96874.00
2022-11-04T01:04:06.987Z,96880.00
2022-11-04T01:09:12.227Z,96874.00
2022-11-04T01:14:16.020Z,96879.00
2022-11-04T01:19:19.066Z,96890.00
2022-11-04T01:24:24.637Z,96889.00
2022-11-04T01:29:27.390Z,96847.00
2022-11-04T01:34:30.287Z,96844.00
2022-11-04T01:39:33.018Z,96881.00
2022-11-04T01:44:54.349Z,96917.00
2022-11-04T01:50:17.397Z,96918.00
2022-11-04T01:55:43.017Z,96930.00
2022-11-04T02:00:46.099Z,96930.00
2022-11-04T02:05:49.623Z,96944.00
2022-11-04T02:11:00.614Z,96945.00
2022-11-04T02:16:26.161Z,96945.00
2022-11-04T02:21:40.875Z,96934.00
2022-11-04T02:27:20.830Z,96940.00
2022-11-04T02:32:44.692Z,96944.00
2022-11-04T02:37:58.882Z,96939.00
2022-11-04T02:43:03.840Z,96944.00
2022-11-04T02:48:45.618Z,96955.00
2022-11-04T02:53:52.456Z,96951.00
2022-11-04T02:59:00.966Z,96942.00
2022-11-04T03:04:18.155Z,96946.00
2022-11-04T03:09:23.095Z,96944.00
2022-11-04T03:14:41.412Z,96954.00
2022-11-04T03:20:07.367Z,96947.00
2022-11-04T03:25:10.611Z,96941.00
2022-11-04T03:30:20.392Z,96942.00
2022-11-04T03:35:23.497Z,96951.00
2022-11-04T03:40:28.491Z,96950.00
2022-11-04T03:45:31.386Z,96958.00
2022-11-04T03:50:46.974Z,96959.00
2022-11-04T03:56:04.805Z,96964.00
2022-11-04T04:01:34.182Z,96977.00
2022-11-04T04:06:37.995Z,96987.00
2022-11-04T04:11:53.156Z,96999.00
2022-11-04T04:16:58.135Z,97001.00
2022-11-04T04:22:14.036Z,97008.00
2022-11-04T04:27:33.966Z,97018.00
2022-11-04T04:32:44.253Z,97023.00
2022-11-04T04:37:48.296Z,97028.00
2022-11-04T04:43:11.558Z,97018.00
2022-11-04T04:48:14.777Z,97022.00
2022-11-04T04:53:17.481Z,97025.00
2022-11-04T04:58:20.247Z,97028.00
2022-11-04T05:03:24.454Z,97021.00
2022-11-04T05:08:30.129Z,97015.00
2022-11-04T05:13:32.839Z,97018.00
2022-11-04T05:18:36.415Z,97024.00
2022-11-04T05:23:39.173Z,97017.00
2022-11-04T05:28:41.911Z,97012.00
2022-11-04T05:33:44.650Z,97017.00
2022-11-04T05:38:52.095Z,97017.00
2022-11-04T05:43:59.570Z,97022.00
2022-11-04T05:49:02.402Z,97022.00
2022-11-04T05:54:05.205Z,97012.00
2022-11-04T05:59:07.887Z,97012.00
2022-11-04T06:04:16.342Z,97011.00
2022-11-04T06:09:19.134Z,97013.00
2022-11-04T06:14:21.976Z,97014.00
2022-11-04T07:26:26.960Z,97033.00
